sensor_id;sensor_type;location;lat;lon;timestamp;P1;durP1;ratioP1;P2;durP2;ratioP2
25870;SDS011;13689;48.590;7.752;2023-06-14T00:01:20;5.72;;;3.10;;
25870;SDS011;13689;48.590;7.752;2023-06-14T00:03:47;6.32;;;3.30;;
25870;SDS011;13689;48.590;7.752;2023-06-14T00:06:13;10.90;;;3.22;;
25870;SDS011;13689;48.590;7.752;2023-06-14T00:08:39;9.43;;;3.70;;
25870;SDS011;13689;48.590;7.752;2023-06-14T00:11:05;8.70;;;3.70;;
25870;SDS011;13689;48.590;7.752;2023-06-14T00:13:31;7.65;;;3.08;;
25870;SDS011;13689;48.590;7.752;2023-06-14T00:15:57;6.32;;;3.13;;
25870;SDS011;13689;48.590;7.752;2023-06-14T00:18:23;4.07;;;3.10;;
25870;SDS011;13689;48.590;7.752;2023-06-14T00:20:54;8.82;;;3.10;;
25870;SDS011;13689;48.590;7.752;2023-06-14T00:23:20;9.25;;;3.00;;
25870;SDS011;13689;48.590;7.752;2023-06-14T00:25:46;5.97;;;2.97;;
25870;SDS011;13689;48.590;7.752;2023-06-14T00:28:12;8.48;;;3.25;;
25870;SDS011;13689;48.590;7.752;2023-06-14T00:30:38;5.13;;;3.22;;
25870;SDS011;13689;48.590;7.752;2023-06-14T00:33:04;5.53;;;3.10;;
25870;SDS011;13689;48.590;7.752;2023-06-14T00:35:29;8.35;;;3.13;;
25870;SDS011;13689;48.590;7.752;2023-06-14T00:37:55;3.17;;;2.83;;
25870;SDS011;13689;48.590;7.752;2023-06-14T00:40:21;9.88;;;3.03;;
25870;SDS011;13689;48.590;7.752;2023-06-14T00:42:47;4.80;;;3.33;;
25870;SDS011;13689;48.590;7.752;2023-06-14T00:45:13;7.78;;;3.30;;
25870;SDS011;13689;48.590;7.752;2023-06-14T00:47:38;6.22;;;3.40;;
25870;SDS011;13689;48.590;7.752;2023-06-14T00:50:06;7.28;;;3.60;;
25870;SDS011;13689;48.590;7.752;2023-06-14T00:52:33;6.70;;;3.33;;
25870;SDS011;13689;48.590;7.752;2023-06-14T00:54:59;6.55;;;2.92;;
25870;SDS011;13689;48.590;7.752;2023-06-14T00:57:25;6.25;;;3.70;;
25870;SDS011;13689;48.590;7.752;2023-06-14T00:59:52;4.05;;;3.03;;
25870;SDS011;13689;48.590;7.752;2023-06-14T01:02:17;5.15;;;2.85;;
25870;SDS011;13689;48.590;7.752;2023-06-14T01:04:45;5.05;;;3.38;;
25870;SDS011;13689;48.590;7.752;2023-06-14T01:15:17;5.32;;;3.60;;
25870;SDS011;13689;48.590;7.752;2023-06-14T01:17:48;5.68;;;3.08;;
25870;SDS011;13689;48.590;7.752;2023-06-14T01:20:16;12.95;;;3.33;;
25870;SDS011;13689;48.590;7.752;2023-06-14T01:22:52;5.60;;;3.08;;
25870;SDS011;13689;48.590;7.752;2023-06-14T01:25:19;4.85;;;3.42;;
25870;SDS011;13689;48.590;7.752;2023-06-14T01:27:47;3.33;;;3.03;;
25870;SDS011;13689;48.590;7.752;2023-06-14T01:30:17;4.53;;;3.45;;
25870;SDS011;13689;48.590;7.752;2023-06-14T01:32:45;5.10;;;3.65;;
25870;SDS011;13689;48.590;7.752;2023-06-14T01:35:11;6.20;;;3.38;;
25870;SDS011;13689;48.590;7.752;2023-06-14T01:37:37;7.00;;;3.45;;
25870;SDS011;13689;48.590;7.752;2023-06-14T01:40:06;8.65;;;3.80;;
25870;SDS011;13689;48.590;7.752;2023-06-14T01:42:37;7.72;;;3.88;;
25870;SDS011;13689;48.590;7.752;2023-06-14T01:45:06;7.10;;;3.72;;
25870;SDS011;13689;48.590;7.752;2023-06-14T01:47:33;5.32;;;3.20;;
25870;SDS011;13689;48.590;7.752;2023-06-14T01:50:01;6.80;;;3.60;;
25870;SDS011;13689;48.590;7.752;2023-06-14T01:52:30;7.88;;;2.97;;
25870;SDS011;13689;48.590;7.752;2023-06-14T01:54:56;7.88;;;4.03;;
25870;SDS011;13689;48.590;7.752;2023-06-14T01:57:23;8.32;;;3.75;;
25870;SDS011;13689;48.590;7.752;2023-06-14T01:59:50;9.30;;;3.45;;
25870;SDS011;13689;48.590;7.752;2023-06-14T02:02:15;7.20;;;3.72;;
25870;SDS011;13689;48.590;7.752;2023-06-14T02:04:41;8.40;;;3.65;;
25870;SDS011;13689;48.590;7.752;2023-06-14T02:07:07;13.40;;;4.63;;
25870;SDS011;13689;48.590;7.752;2023-06-14T02:09:33;7.90;;;4.07;;
25870;SDS011;13689;48.590;7.752;2023-06-14T02:12:00;6.03;;;3.67;;
25870;SDS011;13689;48.590;7.752;2023-06-14T02:14:26;6.07;;;3.92;;
25870;SDS011;13689;48.590;7.752;2023-06-14T02:16:52;6.63;;;3.90;;
25870;SDS011;13689;48.590;7.752;2023-06-14T02:19:18;6.32;;;3.78;;
25870;SDS011;13689;48.590;7.752;2023-06-14T02:21:44;6.70;;;3.88;;
25870;SDS011;13689;48.590;7.752;2023-06-14T02:24:10;10.57;;;3.92;;
25870;SDS011;13689;48.590;7.752;2023-06-14T02:26:36;6.63;;;4.32;;
25870;SDS011;13689;48.590;7.752;2023-06-14T02:29:06;9.95;;;3.70;;
25870;SDS011;13689;48.590;7.752;2023-06-14T02:31:34;6.18;;;3.90;;
25870;SDS011;13689;48.590;7.752;2023-06-14T02:34:00;7.03;;;3.72;;
25870;SDS011;13689;48.590;7.752;2023-06-14T02:36:26;6.35;;;3.90;;
25870;SDS011;13689;48.590;7.752;2023-06-14T02:38:52;10.98;;;4.00;;
25870;SDS011;13689;48.590;7.752;2023-06-14T02:41:19;5.55;;;4.00;;
25870;SDS011;13689;48.590;7.752;2023-06-14T02:43:44;4.68;;;3.67;;
25870;SDS011;13689;48.590;7.752;2023-06-14T02:46:10;6.85;;;4.20;;
25870;SDS011;13689;48.590;7.752;2023-06-14T02:48:36;9.50;;;4.07;;
25870;SDS011;13689;48.590;7.752;2023-06-14T02:51:02;7.15;;;4.00;;
25870;SDS011;13689;48.590;7.752;2023-06-14T02:53:27;8.40;;;3.90;;
25870;SDS011;13689;48.590;7.752;2023-06-14T02:55:53;11.35;;;3.78;;
25870;SDS011;13689;48.590;7.752;2023-06-14T02:58:20;9.03;;;3.97;;
25870;SDS011;13689;48.590;7.752;2023-06-14T03:00:46;4.55;;;3.50;;
25870;SDS011;13689;48.590;7.752;2023-06-14T03:03:11;6.68;;;3.72;;
25870;SDS011;13689;48.590;7.752;2023-06-14T03:05:44;6.43;;;4.40;;
25870;SDS011;13689;48.590;7.752;2023-06-14T03:08:12;7.85;;;4.30;;
25870;SDS011;13689;48.590;7.752;2023-06-14T03:10:45;8.48;;;3.65;;
25870;SDS011;13689;48.590;7.752;2023-06-14T03:13:11;6.50;;;4.63;;
25870;SDS011;13689;48.590;7.752;2023-06-14T03:15:37;4.57;;;4.03;;
25870;SDS011;13689;48.590;7.752;2023-06-14T03:18:03;5.00;;;3.58;;
25870;SDS011;13689;48.590;7.752;2023-06-14T03:20:29;6.65;;;4.00;;
25870;SDS011;13689;48.590;7.752;2023-06-14T03:22:58;8.50;;;4.50;;
25870;SDS011;13689;48.590;7.752;2023-06-14T03:25:24;5.18;;;3.80;;
25870;SDS011;13689;48.590;7.752;2023-06-14T03:27:50;5.40;;;3.63;;
25870;SDS011;13689;48.590;7.752;2023-06-14T03:30:16;7.47;;;3.78;;
25870;SDS011;13689;48.590;7.752;2023-06-14T03:32:42;11.30;;;4.00;;
25870;SDS011;13689;48.590;7.752;2023-06-14T03:35:08;7.57;;;3.72;;
25870;SDS011;13689;48.590;7.752;2023-06-14T03:37:35;4.80;;;3.43;;
25870;SDS011;13689;48.590;7.752;2023-06-14T03:40:00;5.53;;;3.63;;
25870;SDS011;13689;48.590;7.752;2023-06-14T03:42:27;5.32;;;3.55;;
25870;SDS011;13689;48.590;7.752;2023-06-14T03:44:52;7.95;;;3.63;;
25870;SDS011;13689;48.590;7.752;2023-06-14T03:47:18;6.32;;;3.75;;
25870;SDS011;13689;48.590;7.752;2023-06-14T03:49:43;7.25;;;4.20;;
25870;SDS011;13689;48.590;7.752;2023-06-14T03:52:09;6.20;;;3.83;;
25870;SDS011;13689;48.590;7.752;2023-06-14T03:54:34;8.13;;;3.78;;
25870;SDS011;13689;48.590;7.752;2023-06-14T03:57:00;7.47;;;4.10;;
25870;SDS011;13689;48.590;7.752;2023-06-14T03:59:26;8.35;;;3.97;;
25870;SDS011;13689;48.590;7.752;2023-06-14T04:01:53;7.75;;;3.33;;
25870;SDS011;13689;48.590;7.752;2023-06-14T04:04:19;6.17;;;3.70;;
25870;SDS011;13689;48.590;7.752;2023-06-14T04:06:46;7.83;;;3.93;;
25870;SDS011;13689;48.590;7.752;2023-06-14T04:09:13;6.25;;;3.60;;
25870;SDS011;13689;48.590;7.752;2023-06-14T04:11:38;7.28;;;4.47;;
25870;SDS011;13689;48.590;7.752;2023-06-14T04:14:05;6.25;;;3.80;;
25870;SDS011;13689;48.590;7.752;2023-06-14T04:16:30;5.13;;;3.38;;
25870;SDS011;13689;48.590;7.752;2023-06-14T04:18:57;6.40;;;3.55;;
25870;SDS011;13689;48.590;7.752;2023-06-14T04:21:23;4.57;;;3.60;;
25870;SDS011;13689;48.590;7.752;2023-06-14T04:23:48;7.55;;;3.95;;
25870;SDS011;13689;48.590;7.752;2023-06-14T04:26:17;6.55;;;3.35;;
25870;SDS011;13689;48.590;7.752;2023-06-14T04:28:44;8.43;;;4.20;;
25870;SDS011;13689;48.590;7.752;2023-06-14T04:31:11;5.17;;;3.67;;
25870;SDS011;13689;48.590;7.752;2023-06-14T04:33:37;9.73;;;3.33;;
25870;SDS011;13689;48.590;7.752;2023-06-14T04:36:11;6.78;;;3.72;;
25870;SDS011;13689;48.590;7.752;2023-06-14T04:38:37;9.63;;;4.13;;
25870;SDS011;13689;48.590;7.752;2023-06-14T04:41:03;11.93;;;4.60;;
25870;SDS011;13689;48.590;7.752;2023-06-14T04:43:29;5.95;;;3.30;;
25870;SDS011;13689;48.590;7.752;2023-06-14T04:45:56;9.95;;;4.00;;
25870;SDS011;13689;48.590;7.752;2023-06-14T04:48:22;7.93;;;3.63;;
25870;SDS011;13689;48.590;7.752;2023-06-14T04:50:48;6.90;;;3.90;;
25870;SDS011;13689;48.590;7.752;2023-06-14T04:53:18;5.38;;;3.90;;
25870;SDS011;13689;48.590;7.752;2023-06-14T04:55:46;5.97;;;4.00;;
25870;SDS011;13689;48.590;7.752;2023-06-14T04:58:13;13.13;;;3.80;;
25870;SDS011;13689;48.590;7.752;2023-06-14T05:00:38;7.90;;;3.88;;
25870;SDS011;13689;48.590;7.752;2023-06-14T05:03:04;8.38;;;4.03;;
25870;SDS011;13689;48.590;7.752;2023-06-14T05:05:31;5.57;;;3.40;;
25870;SDS011;13689;48.590;7.752;2023-06-14T05:07:57;4.57;;;3.38;;
25870;SDS011;13689;48.590;7.752;2023-06-14T05:10:22;10.65;;;4.25;;
25870;SDS011;13689;48.590;7.752;2023-06-14T05:12:49;9.90;;;4.65;;
25870;SDS011;13689;48.590;7.752;2023-06-14T05:15:15;7.50;;;3.80;;
25870;SDS011;13689;48.590;7.752;2023-06-14T05:17:41;5.97;;;4.20;;
25870;SDS011;13689;48.590;7.752;2023-06-14T05:20:08;11.15;;;3.90;;
25870;SDS011;13689;48.590;7.752;2023-06-14T05:22:35;9.18;;;5.18;;
25870;SDS011;13689;48.590;7.752;2023-06-14T05:25:01;8.05;;;3.90;;
25870;SDS011;13689;48.590;7.752;2023-06-14T05:27:27;8.65;;;3.90;;
25870;SDS011;13689;48.590;7.752;2023-06-14T05:29:52;7.15;;;3.90;;
25870;SDS011;13689;48.590;7.752;2023-06-14T05:34:46;13.43;;;4.00;;
25870;SDS011;13689;48.590;7.752;2023-06-14T05:37:11;7.60;;;5.07;;
25870;SDS011;13689;48.590;7.752;2023-06-14T05:39:38;12.13;;;4.30;;
25870;SDS011;13689;48.590;7.752;2023-06-14T05:42:03;6.03;;;3.50;;
25870;SDS011;13689;48.590;7.752;2023-06-14T05:44:29;6.00;;;3.33;;
25870;SDS011;13689;48.590;7.752;2023-06-14T05:46:55;11.60;;;3.22;;
25870;SDS011;13689;48.590;7.752;2023-06-14T05:49:20;9.00;;;3.60;;
25870;SDS011;13689;48.590;7.752;2023-06-14T05:51:46;9.40;;;3.67;;
25870;SDS011;13689;48.590;7.752;2023-06-14T05:54:12;7.53;;;3.30;;
25870;SDS011;13689;48.590;7.752;2023-06-14T05:56:38;10.50;;;3.60;;
25870;SDS011;13689;48.590;7.752;2023-06-14T05:59:04;7.57;;;3.35;;
25870;SDS011;13689;48.590;7.752;2023-06-14T06:01:29;6.30;;;3.65;;
25870;SDS011;13689;48.590;7.752;2023-06-14T06:03:55;6.82;;;3.45;;
25870;SDS011;13689;48.590;7.752;2023-06-14T06:06:21;9.93;;;3.80;;
25870;SDS011;13689;48.590;7.752;2023-06-14T06:08:47;8.90;;;3.72;;
25870;SDS011;13689;48.590;7.752;2023-06-14T06:11:13;9.35;;;3.55;;
25870;SDS011;13689;48.590;7.752;2023-06-14T06:13:38;9.18;;;3.40;;
25870;SDS011;13689;48.590;7.752;2023-06-14T06:16:04;5.15;;;3.35;;
25870;SDS011;13689;48.590;7.752;2023-06-14T06:18:30;7.03;;;3.40;;
25870;SDS011;13689;48.590;7.752;2023-06-14T06:20:55;6.60;;;4.25;;
25870;SDS011;13689;48.590;7.752;2023-06-14T06:23:21;5.45;;;3.47;;
25870;SDS011;13689;48.590;7.752;2023-06-14T06:25:46;7.55;;;3.83;;
25870;SDS011;13689;48.590;7.752;2023-06-14T06:28:12;8.73;;;4.15;;
25870;SDS011;13689;48.590;7.752;2023-06-14T06:30:38;6.88;;;3.78;;
25870;SDS011;13689;48.590;7.752;2023-06-14T06:33:03;4.47;;;2.95;;
25870;SDS011;13689;48.590;7.752;2023-06-14T06:35:29;7.82;;;3.50;;
25870;SDS011;13689;48.590;7.752;2023-06-14T06:37:55;5.68;;;3.08;;
25870;SDS011;13689;48.590;7.752;2023-06-14T06:40:21;9.13;;;3.88;;
25870;SDS011;13689;48.590;7.752;2023-06-14T06:42:47;7.03;;;3.65;;
25870;SDS011;13689;48.590;7.752;2023-06-14T06:45:13;7.18;;;4.25;;
25870;SDS011;13689;48.590;7.752;2023-06-14T06:47:38;10.35;;;3.03;;
25870;SDS011;13689;48.590;7.752;2023-06-14T06:50:04;11.65;;;4.10;;
25870;SDS011;13689;48.590;7.752;2023-06-14T06:52:32;6.30;;;3.58;;
25870;SDS011;13689;48.590;7.752;2023-06-14T06:54:58;7.22;;;3.53;;
25870;SDS011;13689;48.590;7.752;2023-06-14T06:57:23;8.77;;;3.30;;
25870;SDS011;13689;48.590;7.752;2023-06-14T06:59:49;10.40;;;3.13;;
25870;SDS011;13689;48.590;7.752;2023-06-14T07:02:15;6.35;;;4.18;;
25870;SDS011;13689;48.590;7.752;2023-06-14T07:04:41;7.13;;;3.47;;
25870;SDS011;13689;48.590;7.752;2023-06-14T07:07:07;6.78;;;3.67;;
25870;SDS011;13689;48.590;7.752;2023-06-14T07:09:34;3.33;;;2.22;;
25870;SDS011;13689;48.590;7.752;2023-06-14T07:12:00;4.53;;;3.75;;
25870;SDS011;13689;48.590;7.752;2023-06-14T07:14:27;4.60;;;3.13;;
25870;SDS011;13689;48.590;7.752;2023-06-14T07:16:52;6.63;;;3.33;;
25870;SDS011;13689;48.590;7.752;2023-06-14T07:19:18;9.60;;;3.35;;
25870;SDS011;13689;48.590;7.752;2023-06-14T07:21:44;3.78;;;3.30;;
25870;SDS011;13689;48.590;7.752;2023-06-14T07:24:09;3.95;;;3.45;;
25870;SDS011;13689;48.590;7.752;2023-06-14T07:26:35;5.72;;;3.42;;
25870;SDS011;13689;48.590;7.752;2023-06-14T07:29:01;8.52;;;3.38;;
25870;SDS011;13689;48.590;7.752;2023-06-14T07:31:27;6.00;;;4.00;;
25870;SDS011;13689;48.590;7.752;2023-06-14T07:33:52;5.20;;;3.90;;
25870;SDS011;13689;48.590;7.752;2023-06-14T07:36:18;11.48;;;3.78;;
25870;SDS011;13689;48.590;7.752;2023-06-14T07:38:43;10.25;;;3.50;;
25870;SDS011;13689;48.590;7.752;2023-06-14T07:41:10;5.18;;;3.20;;
25870;SDS011;13689;48.590;7.752;2023-06-14T07:43:36;10.90;;;4.40;;
25870;SDS011;13689;48.590;7.752;2023-06-14T07:46:01;6.28;;;3.50;;
25870;SDS011;13689;48.590;7.752;2023-06-14T07:48:27;13.77;;;4.15;;
25870;SDS011;13689;48.590;7.752;2023-06-14T07:50:53;9.73;;;3.42;;
25870;SDS011;13689;48.590;7.752;2023-06-14T07:53:19;5.45;;;3.55;;
25870;SDS011;13689;48.590;7.752;2023-06-14T07:55:44;6.40;;;4.00;;
25870;SDS011;13689;48.590;7.752;2023-06-14T08:00:37;8.27;;;4.75;;
25870;SDS011;13689;48.590;7.752;2023-06-14T08:03:03;6.30;;;3.28;;
25870;SDS011;13689;48.590;7.752;2023-06-14T08:05:29;5.30;;;2.95;;
25870;SDS011;13689;48.590;7.752;2023-06-14T08:07:56;8.38;;;4.28;;
25870;SDS011;13689;48.590;7.752;2023-06-14T08:10:22;5.83;;;3.70;;
25870;SDS011;13689;48.590;7.752;2023-06-14T08:12:48;4.05;;;3.10;;
25870;SDS011;13689;48.590;7.752;2023-06-14T08:15:15;8.73;;;3.75;;
25870;SDS011;13689;48.590;7.752;2023-06-14T08:17:42;3.70;;;3.30;;
25870;SDS011;13689;48.590;7.752;2023-06-14T08:20:08;4.82;;;3.00;;
25870;SDS011;13689;48.590;7.752;2023-06-14T08:22:34;5.60;;;3.33;;
25870;SDS011;13689;48.590;7.752;2023-06-14T08:25:01;6.00;;;3.20;;
25870;SDS011;13689;48.590;7.752;2023-06-14T08:27:27;9.77;;;3.88;;
25870;SDS011;13689;48.590;7.752;2023-06-14T08:29:53;5.32;;;2.78;;
25870;SDS011;13689;48.590;7.752;2023-06-14T08:32:18;5.47;;;3.60;;
25870;SDS011;13689;48.590;7.752;2023-06-14T08:34:44;6.30;;;2.70;;
25870;SDS011;13689;48.590;7.752;2023-06-14T08:37:10;6.13;;;2.80;;
25870;SDS011;13689;48.590;7.752;2023-06-14T08:39:36;8.65;;;3.22;;
25870;SDS011;13689;48.590;7.752;2023-06-14T08:42:03;7.60;;;3.25;;
25870;SDS011;13689;48.590;7.752;2023-06-14T08:44:30;7.85;;;2.83;;
25870;SDS011;13689;48.590;7.752;2023-06-14T08:46:56;5.07;;;2.40;;
25870;SDS011;13689;48.590;7.752;2023-06-14T08:49:22;8.98;;;2.85;;
25870;SDS011;13689;48.590;7.752;2023-06-14T08:51:50;8.00;;;3.13;;
25870;SDS011;13689;48.590;7.752;2023-06-14T08:54:22;7.85;;;3.20;;
25870;SDS011;13689;48.590;7.752;2023-06-14T08:56:49;4.23;;;3.03;;
25870;SDS011;13689;48.590;7.752;2023-06-14T09:01:43;12.15;;;3.63;;
25870;SDS011;13689;48.590;7.752;2023-06-14T09:06:36;6.22;;;2.85;;
25870;SDS011;13689;48.590;7.752;2023-06-14T09:09:02;4.78;;;2.53;;
25870;SDS011;13689;48.590;7.752;2023-06-14T09:13:55;7.90;;;3.25;;
25870;SDS011;13689;48.590;7.752;2023-06-14T09:16:20;7.25;;;2.90;;
25870;SDS011;13689;48.590;7.752;2023-06-14T09:18:46;7.07;;;2.67;;
25870;SDS011;13689;48.590;7.752;2023-06-14T09:21:13;5.75;;;2.97;;
25870;SDS011;13689;48.590;7.752;2023-06-14T09:23:40;6.63;;;3.08;;
25870;SDS011;13689;48.590;7.752;2023-06-14T09:26:08;8.27;;;3.25;;
25870;SDS011;13689;48.590;7.752;2023-06-14T09:28:35;8.57;;;3.33;;
25870;SDS011;13689;48.590;7.752;2023-06-14T09:31:02;10.73;;;3.03;;
25870;SDS011;13689;48.590;7.752;2023-06-14T09:33:27;4.93;;;2.63;;
25870;SDS011;13689;48.590;7.752;2023-06-14T09:35:56;6.10;;;2.95;;
25870;SDS011;13689;48.590;7.752;2023-06-14T09:38:21;7.22;;;3.30;;
25870;SDS011;13689;48.590;7.752;2023-06-14T09:40:49;7.80;;;3.30;;
25870;SDS011;13689;48.590;7.752;2023-06-14T09:43:15;2.60;;;1.85;;
25870;SDS011;13689;48.590;7.752;2023-06-14T09:48:11;7.50;;;3.10;;
25870;SDS011;13689;48.590;7.752;2023-06-14T09:50:37;7.70;;;3.33;;
25870;SDS011;13689;48.590;7.752;2023-06-14T09:55:36;7.10;;;3.40;;
25870;SDS011;13689;48.590;7.752;2023-06-14T09:58:06;2.92;;;2.28;;
25870;SDS011;13689;48.590;7.752;2023-06-14T10:00:32;2.63;;;2.17;;
25870;SDS011;13689;48.590;7.752;2023-06-14T10:03:00;4.88;;;2.50;;
25870;SDS011;13689;48.590;7.752;2023-06-14T10:05:36;8.55;;;3.45;;
25870;SDS011;13689;48.590;7.752;2023-06-14T10:08:08;9.83;;;3.23;;
25870;SDS011;13689;48.590;7.752;2023-06-14T10:10:38;16.95;;;3.75;;
25870;SDS011;13689;48.590;7.752;2023-06-14T10:13:05;8.60;;;2.20;;
25870;SDS011;13689;48.590;7.752;2023-06-14T10:18:14;9.00;;;2.67;;
25870;SDS011;13689;48.590;7.752;2023-06-14T10:21:03;4.70;;;3.10;;
25870;SDS011;13689;48.590;7.752;2023-06-14T10:23:44;8.73;;;2.92;;
25870;SDS011;13689;48.590;7.752;2023-06-14T10:26:18;10.15;;;2.90;;
25870;SDS011;13689;48.590;7.752;2023-06-14T10:29:08;9.18;;;2.30;;
25870;SDS011;13689;48.590;7.752;2023-06-14T10:31:44;7.93;;;2.50;;
25870;SDS011;13689;48.590;7.752;2023-06-14T10:34:39;4.40;;;2.15;;
25870;SDS011;13689;48.590;7.752;2023-06-14T10:37:06;13.07;;;3.00;;
25870;SDS011;13689;48.590;7.752;2023-06-14T10:42:11;7.80;;;3.03;;
25870;SDS011;13689;48.590;7.752;2023-06-14T10:44:38;12.13;;;2.20;;
25870;SDS011;13689;48.590;7.752;2023-06-14T10:47:20;9.82;;;2.30;;
25870;SDS011;13689;48.590;7.752;2023-06-14T10:52:43;6.45;;;2.80;;
25870;SDS011;13689;48.590;7.752;2023-06-14T10:55:09;8.82;;;2.80;;
25870;SDS011;13689;48.590;7.752;2023-06-14T11:00:07;4.13;;;2.65;;
25870;SDS011;13689;48.590;7.752;2023-06-14T11:05:08;2.55;;;1.85;;
25870;SDS011;13689;48.590;7.752;2023-06-14T11:07:50;8.07;;;2.90;;
25870;SDS011;13689;48.590;7.752;2023-06-14T11:10:36;4.88;;;2.67;;
25870;SDS011;13689;48.590;7.752;2023-06-14T11:13:03;3.67;;;2.63;;
25870;SDS011;13689;48.590;7.752;2023-06-14T11:15:34;5.85;;;2.53;;
25870;SDS011;13689;48.590;7.752;2023-06-14T11:18:04;5.25;;;2.90;;
25870;SDS011;13689;48.590;7.752;2023-06-14T11:20:32;11.55;;;3.05;;
25870;SDS011;13689;48.590;7.752;2023-06-14T11:25:25;8.25;;;2.65;;
25870;SDS011;13689;48.590;7.752;2023-06-14T11:27:51;4.00;;;2.60;;
25870;SDS011;13689;48.590;7.752;2023-06-14T11:30:17;7.40;;;2.80;;
25870;SDS011;13689;48.590;7.752;2023-06-14T11:32:49;4.38;;;2.80;;
25870;SDS011;13689;48.590;7.752;2023-06-14T11:35:17;10.30;;;3.08;;
25870;SDS011;13689;48.590;7.752;2023-06-14T11:37:43;9.40;;;2.65;;
25870;SDS011;13689;48.590;7.752;2023-06-14T11:40:09;4.93;;;2.72;;
25870;SDS011;13689;48.590;7.752;2023-06-14T11:42:36;2.05;;;1.63;;
25870;SDS011;13689;48.590;7.752;2023-06-14T11:45:03;7.95;;;2.70;;
25870;SDS011;13689;48.590;7.752;2023-06-14T11:47:32;7.13;;;2.85;;
25870;SDS011;13689;48.590;7.752;2023-06-14T11:50:02;8.68;;;2.88;;
25870;SDS011;13689;48.590;7.752;2023-06-14T11:52:31;8.88;;;2.33;;
25870;SDS011;13689;48.590;7.752;2023-06-14T11:55:13;4.88;;;2.47;;
25870;SDS011;13689;48.590;7.752;2023-06-14T11:57:39;6.15;;;2.38;;
25870;SDS011;13689;48.590;7.752;2023-06-14T12:00:06;7.15;;;2.85;;
25870;SDS011;13689;48.590;7.752;2023-06-14T12:02:40;4.45;;;2.20;;
25870;SDS011;13689;48.590;7.752;2023-06-14T12:05:06;6.65;;;4.28;;
25870;SDS011;13689;48.590;7.752;2023-06-14T12:10:42;3.25;;;2.95;;
25870;SDS011;13689;48.590;7.752;2023-06-14T12:13:08;2.55;;;2.25;;
25870;SDS011;13689;48.590;7.752;2023-06-14T12:15:36;7.10;;;2.28;;
25870;SDS011;13689;48.590;7.752;2023-06-14T12:18:04;3.20;;;1.77;;
25870;SDS011;13689;48.590;7.752;2023-06-14T12:20:33;4.78;;;2.28;;
25870;SDS011;13689;48.590;7.752;2023-06-14T12:23:06;8.02;;;2.65;;
25870;SDS011;13689;48.590;7.752;2023-06-14T12:25:34;5.95;;;2.72;;
25870;SDS011;13689;48.590;7.752;2023-06-14T12:30:34;4.68;;;2.50;;
25870;SDS011;13689;48.590;7.752;2023-06-14T12:33:04;4.80;;;2.95;;
25870;SDS011;13689;48.590;7.752;2023-06-14T12:35:30;4.85;;;2.22;;
25870;SDS011;13689;48.590;7.752;2023-06-14T12:37:56;5.70;;;2.83;;
25870;SDS011;13689;48.590;7.752;2023-06-14T12:40:21;6.72;;;2.35;;
25870;SDS011;13689;48.590;7.752;2023-06-14T12:42:48;8.50;;;3.22;;
25870;SDS011;13689;48.590;7.752;2023-06-14T12:45:19;2.25;;;1.95;;
25870;SDS011;13689;48.590;7.752;2023-06-14T12:47:44;9.45;;;3.05;;
25870;SDS011;13689;48.590;7.752;2023-06-14T12:50:10;3.17;;;2.83;;
25870;SDS011;13689;48.590;7.752;2023-06-14T12:52:36;7.95;;;3.13;;
25870;SDS011;13689;48.590;7.752;2023-06-14T12:55:04;12.50;;;2.70;;
25870;SDS011;13689;48.590;7.752;2023-06-14T12:57:30;3.30;;;2.03;;
25870;SDS011;13689;48.590;7.752;2023-06-14T12:59:57;5.07;;;3.00;;
25870;SDS011;13689;48.590;7.752;2023-06-14T13:04:50;7.97;;;2.90;;
25870;SDS011;13689;48.590;7.752;2023-06-14T13:07:16;9.60;;;2.60;;
25870;SDS011;13689;48.590;7.752;2023-06-14T13:09:42;6.60;;;2.90;;
25870;SDS011;13689;48.590;7.752;2023-06-14T13:12:09;4.65;;;3.00;;
25870;SDS011;13689;48.590;7.752;2023-06-14T13:14:41;6.55;;;3.03;;
25870;SDS011;13689;48.590;7.752;2023-06-14T13:17:10;3.22;;;2.15;;
25870;SDS011;13689;48.590;7.752;2023-06-14T13:19:36;6.22;;;2.65;;
25870;SDS011;13689;48.590;7.752;2023-06-14T13:22:01;5.07;;;2.65;;
25870;SDS011;13689;48.590;7.752;2023-06-14T13:24:30;7.45;;;2.45;;
25870;SDS011;13689;48.590;7.752;2023-06-14T13:26:57;7.93;;;3.22;;
25870;SDS011;13689;48.590;7.752;2023-06-14T13:29:24;5.13;;;3.43;;
25870;SDS011;13689;48.590;7.752;2023-06-14T13:31:50;6.90;;;3.42;;
25870;SDS011;13689;48.590;7.752;2023-06-14T13:34:16;8.13;;;4.10;;
25870;SDS011;13689;48.590;7.752;2023-06-14T13:36:42;4.00;;;2.70;;
25870;SDS011;13689;48.590;7.752;2023-06-14T13:39:07;8.75;;;3.20;;
25870;SDS011;13689;48.590;7.752;2023-06-14T13:41:33;3.28;;;2.40;;
25870;SDS011;13689;48.590;7.752;2023-06-14T13:44:00;3.40;;;2.45;;
25870;SDS011;13689;48.590;7.752;2023-06-14T13:46:28;5.90;;;3.00;;
25870;SDS011;13689;48.590;7.752;2023-06-14T13:48:55;3.15;;;2.47;;
25870;SDS011;13689;48.590;7.752;2023-06-14T13:51:20;7.72;;;3.30;;
25870;SDS011;13689;48.590;7.752;2023-06-14T13:53:47;5.43;;;3.00;;
25870;SDS011;13689;48.590;7.752;2023-06-14T13:58:40;3.85;;;3.10;;
25870;SDS011;13689;48.590;7.752;2023-06-14T14:01:06;6.53;;;2.72;;
25870;SDS011;13689;48.590;7.752;2023-06-14T14:03:32;5.90;;;3.30;;
25870;SDS011;13689;48.590;7.752;2023-06-14T14:05:58;6.93;;;3.53;;
25870;SDS011;13689;48.590;7.752;2023-06-14T14:08:23;4.47;;;3.10;;
25870;SDS011;13689;48.590;7.752;2023-06-14T14:10:49;4.40;;;3.03;;
25870;SDS011;13689;48.590;7.752;2023-06-14T14:13:15;3.45;;;3.13;;
25870;SDS011;13689;48.590;7.752;2023-06-14T14:15:40;4.53;;;2.08;;
25870;SDS011;13689;48.590;7.752;2023-06-14T14:18:06;3.88;;;2.97;;
25870;SDS011;13689;48.590;7.752;2023-06-14T14:20:32;8.23;;;3.20;;
25870;SDS011;13689;48.590;7.752;2023-06-14T14:22:59;4.75;;;2.13;;
25870;SDS011;13689;48.590;7.752;2023-06-14T14:25:24;2.60;;;2.15;;
25870;SDS011;13689;48.590;7.752;2023-06-14T14:27:50;4.88;;;2.90;;
25870;SDS011;13689;48.590;7.752;2023-06-14T14:30:16;6.70;;;2.95;;
25870;SDS011;13689;48.590;7.752;2023-06-14T14:35:09;5.85;;;3.00;;
25870;SDS011;13689;48.590;7.752;2023-06-14T14:37:36;13.50;;;2.83;;
25870;SDS011;13689;48.590;7.752;2023-06-14T14:40:02;2.80;;;2.30;;
25870;SDS011;13689;48.590;7.752;2023-06-14T14:42:28;5.88;;;2.50;;
25870;SDS011;13689;48.590;7.752;2023-06-14T14:44:54;3.63;;;3.00;;
25870;SDS011;13689;48.590;7.752;2023-06-14T14:47:20;4.00;;;2.42;;
25870;SDS011;13689;48.590;7.752;2023-06-14T14:49:45;4.78;;;2.53;;
25870;SDS011;13689;48.590;7.752;2023-06-14T14:52:11;6.40;;;2.47;;
25870;SDS011;13689;48.590;7.752;2023-06-14T14:54:38;9.25;;;2.35;;
25870;SDS011;13689;48.590;7.752;2023-06-14T14:57:04;8.63;;;2.38;;
25870;SDS011;13689;48.590;7.752;2023-06-14T14:59:31;3.90;;;2.47;;
25870;SDS011;13689;48.590;7.752;2023-06-14T15:01:57;7.95;;;2.67;;
25870;SDS011;13689;48.590;7.752;2023-06-14T15:04:22;7.55;;;1.92;;
25870;SDS011;13689;48.590;7.752;2023-06-14T15:06:48;5.15;;;2.25;;
25870;SDS011;13689;48.590;7.752;2023-06-14T15:09:13;8.98;;;2.92;;
25870;SDS011;13689;48.590;7.752;2023-06-14T15:11:40;4.47;;;2.45;;
25870;SDS011;13689;48.590;7.752;2023-06-14T15:14:05;3.22;;;2.20;;
25870;SDS011;13689;48.590;7.752;2023-06-14T15:16:31;8.10;;;2.38;;
25870;SDS011;13689;48.590;7.752;2023-06-14T15:18:56;4.88;;;2.53;;
25870;SDS011;13689;48.590;7.752;2023-06-14T15:21:22;4.55;;;1.88;;
25870;SDS011;13689;48.590;7.752;2023-06-14T15:23:48;3.20;;;2.33;;
25870;SDS011;13689;48.590;7.752;2023-06-14T15:26:18;6.22;;;2.53;;
25870;SDS011;13689;48.590;7.752;2023-06-14T15:28:44;6.20;;;2.03;;
25870;SDS011;13689;48.590;7.752;2023-06-14T15:31:10;10.90;;;2.72;;
25870;SDS011;13689;48.590;7.752;2023-06-14T15:33:36;2.55;;;1.45;;
25870;SDS011;13689;48.590;7.752;2023-06-14T15:36:01;3.05;;;2.38;;
25870;SDS011;13689;48.590;7.752;2023-06-14T15:38:27;7.75;;;2.55;;